createdAt,value
2022-10-29T00:00:50.380Z,101583.16
2022-10-29T00:03:16.985Z,101582.00
2022-10-29T00:05:43.465Z,101589.81
2022-10-29T00:08:10.148Z,101593.47
2022-10-29T00:10:36.550Z,101591.41
2022-10-29T00:13:03.585Z,101586.41
2022-10-29T00:15:30.104Z,101595.09
2022-10-29T00:17:56.748Z,101588.41
2022-10-29T00:20:23.911Z,101590.94
2022-10-29T00:22:53.967Z,101595.44
2022-10-29T00:25:20.751Z,101604.25
2022-10-29T00:27:47.135Z,101613.13
2022-10-29T00:30:13.776Z,101612.75
2022-10-29T00:32:40.162Z,101616.41
2022-10-29T00:35:06.711Z,101623.00
2022-10-29T00:37:33.126Z,101635.53
2022-10-29T00:39:59.523Z,101632.66
2022-10-29T00:42:25.975Z,101628.31
2022-10-29T00:44:52.375Z,101627.00
2022-10-29T00:47:25.806Z,101628.66
2022-10-29T00:50:03.212Z,101632.22
2022-10-29T00:52:32.584Z,101620.78
2022-10-29T00:55:02.810Z,101617.13
2022-10-29T00:57:35.781Z,101606.84
2022-10-29T01:00:02.258Z,101607.72
2022-10-29T01:02:31.632Z,101599.09
2022-10-29T01:04:58.301Z,101617.03
2022-10-29T01:07:24.729Z,101620.69
2022-10-29T01:09:51.196Z,101633.06
2022-10-29T01:12:42.966Z,101626.78
2022-10-29T01:15:36.737Z,101624.28
2022-10-29T01:18:24.613Z,101623.88
2022-10-29T01:21:36.974Z,101625.28
2022-10-29T01:24:35.719Z,101613.13
2022-10-29T01:27:40.156Z,101618.41
2022-10-29T01:30:23.365Z,101616.09
2022-10-29T01:33:02.999Z,101623.00
2022-10-29T01:36:10.543Z,101617.13
2022-10-29T01:38:47.864Z,101620.84
2022-10-29T01:41:29.927Z,101621.47
2022-10-29T01:44:07.230Z,101623.16
2022-10-29T01:46:41.549Z,101631.13
2022-10-29T01:49:17.799Z,101632.97
2022-10-29T01:51:46.182Z,101625.66
2022-10-29T01:54:12.631Z,101634.66
2022-10-29T01:56:39.155Z,101636.56
2022-10-29T01:59:18.240Z,101644.38
2022-10-29T02:02:07.032Z,101641.66
2022-10-29T02:04:42.491Z,101639.47
2022-10-29T02:07:20.503Z,101638.28
2022-10-29T02:09:59.001Z,101648.66
2022-10-29T02:12:29.464Z,101645.69
2022-10-29T02:15:04.380Z,101654.38
2022-10-29T02:17:33.198Z,101649.47
2022-10-29T02:20:03.986Z,101659.56
2022-10-29T02:22:30.394Z,101662.63
2022-10-29T02:24:57.051Z,101666.38
2022-10-29T02:27:23.522Z,101670.34
2022-10-29T02:29:49.935Z,101670.13
2022-10-29T02:32:16.355Z,101667.84
2022-10-29T02:34:42.770Z,101670.19
2022-10-29T02:37:09.180Z,101669.50
2022-10-29T02:39:35.603Z,101667.97
2022-10-29T02:42:01.986Z,101676.06
2022-10-29T02:44:28.386Z,101670.75
2022-10-29T02:46:54.753Z,101674.94
2022-10-29T02:49:21.152Z,101678.00
2022-10-29T02:51:47.536Z,101684.94
2022-10-29T02:54:13.901Z,101679.22
2022-10-29T02:56:40.285Z,101679.28
2022-10-29T02:59:09.257Z,101675.31
2022-10-29T03:01:38.225Z,101675.84
2022-10-29T03:04:04.852Z,101669.97
2022-10-29T03:06:31.302Z,101665.09
2022-10-29T03:08:57.680Z,101670.28
2022-10-29T03:11:24.060Z,101670.59
2022-10-29T03:13:50.450Z,101674.31
2022-10-29T03:16:16.869Z,101676.53
2022-10-29T03:18:43.265Z,101666.47
2022-10-29T03:21:09.644Z,101659.13
2022-10-29T03:23:36.032Z,101669.91
2022-10-29T03:26:02.766Z,101673.63
2022-10-29T03:28:30.598Z,101672.50
2022-10-29T03:30:58.101Z,101677.84
2022-10-29T03:33:28.726Z,101677.69
2022-10-29T03:35:57.041Z,101674.31
2022-10-29T03:38:23.735Z,101682.91
2022-10-29T03:40:50.344Z,101690.06
2022-10-29T03:43:16.729Z,101692.28
2022-10-29T03:45:43.122Z,101682.81
2022-10-29T03:48:09.517Z,101686.69
2022-10-29T03:50:35.916Z,101681.13
2022-10-29T03:53:02.308Z,101686.22
2022-10-29T03:55:29.157Z,101689.38
2022-10-29T03:57:56.231Z,101698.00
2022-10-29T04:00:22.925Z,101703.06
2022-10-29T04:02:49.374Z,101701.19
2022-10-29T04:05:15.841Z,101693.06
2022-10-29T04:07:42.237Z,101693.94
2022-10-29T04:10:08.936Z,101707.28
2022-10-29T04:12:35.327Z,101706.16
2022-10-29T04:15:01.735Z,101688.03
2022-10-29T04:17:28.200Z,101694.66
2022-10-29T04:19:54.593Z,101699.56
2022-10-29T04:30:41.818Z,101691.19
2022-10-29T04:33:08.219Z,101690.69
2022-10-29T04:35:34.628Z,101686.69
2022-10-29T04:38:08.365Z,101676.97
2022-10-29T04:40:34.767Z,101680.69
2022-10-29T04:43:01.193Z,101680.94
2022-10-29T04:45:27.608Z,101670.34
2022-10-29T04:48:01.219Z,101666.88
2022-10-29T04:50:28.296Z,101691.34
2022-10-29T04:53:01.885Z,101707.06
2022-10-29T04:55:29.062Z,101707.97
2022-10-29T04:57:55.995Z,101702.03
2022-10-29T05:00:23.503Z,101695.25
2022-10-29T05:02:51.525Z,101708.72
2022-10-29T05:05:19.657Z,101698.56
2022-10-29T05:07:46.850Z,101702.22
2022-10-29T05:10:13.901Z,101707.88
2022-10-29T05:12:40.576Z,101707.56
2022-10-29T05:15:07.721Z,101724.16
2022-10-29T05:17:40.882Z,101719.41
2022-10-29T05:20:07.648Z,101718.38
2022-10-29T05:22:34.043Z,101724.59
2022-10-29T05:25:00.452Z,101721.88
2022-10-29T05:27:26.894Z,101711.72
2022-10-29T05:29:53.934Z,101715.38
2022-10-29T05:32:20.319Z,101716.31
2022-10-29T05:34:46.708Z,101717.44
2022-10-29T05:37:13.095Z,101720.03
2022-10-29T05:39:39.481Z,101721.19
2022-10-29T05:42:06.401Z,101719.22
2022-10-29T05:44:32.898Z,101718.41
2022-10-29T05:46:59.336Z,101712.25
2022-10-29T05:49:25.726Z,101710.59
2022-10-29T05:51:53.044Z,101711.81
2022-10-29T05:54:19.430Z,101713.78
2022-10-29T05:56:45.816Z,101715.41
2022-10-29T05:59:12.188Z,101710.59
2022-10-29T06:01:38.687Z,101707.19
2022-10-29T06:04:05.107Z,101711.97
2022-10-29T06:06:31.562Z,101725.47
2022-10-29T06:08:57.996Z,101716.78
2022-10-29T06:11:24.402Z,101714.75
2022-10-29T06:13:54.331Z,101716.66
2022-10-29T06:16:20.726Z,101714.38
2022-10-29T06:18:47.189Z,101722.31
2022-10-29T06:21:13.618Z,101730.50
2022-10-29T06:23:39.990Z,101724.81
2022-10-29T06:26:06.403Z,101734.19
2022-10-29T06:28:34.793Z,101741.28
2022-10-29T06:31:01.482Z,101730.28
2022-10-29T06:33:27.886Z,101732.56
2022-10-29T06:35:58.569Z,101727.13
2022-10-29T06:38:25.016Z,101731.63
2022-10-29T06:40:53.673Z,101733.00
2022-10-29T06:43:20.699Z,101737.81
2022-10-29T06:45:49.370Z,101730.78
2022-10-29T06:48:19.138Z,101733.31
2022-10-29T06:50:48.335Z,101731.88
2022-10-29T06:53:15.221Z,101732.94
2022-10-29T06:55:41.686Z,101728.09
2022-10-29T06:58:13.106Z,101743.34
2022-10-29T07:00:41.090Z,101737.25
2022-10-29T07:03:11.756Z,101736.44
2022-10-29T07:05:38.137Z,101733.56
2022-10-29T07:08:04.616Z,101739.16
2022-10-29T07:10:32.691Z,101737.44
2022-10-29T07:13:00.104Z,101740.78
2022-10-29T07:15:27.871Z,101744.31
2022-10-29T07:18:04.898Z,101747.31
2022-10-29T07:20:33.422Z,101748.47
2022-10-29T07:23:01.240Z,101749.84
2022-10-29T07:25:28.800Z,101756.28
2022-10-29T07:27:56.346Z,101763.56
2022-10-29T07:30:22.997Z,101774.88
2022-10-29T07:32:49.382Z,101779.31
2022-10-29T07:35:15.817Z,101772.22
2022-10-29T07:37:42.214Z,101770.50
2022-10-29T07:40:09.245Z,101778.59
2022-10-29T07:42:35.631Z,101768.03
2022-10-29T07:45:02.030Z,101776.44
2022-10-29T07:47:28.418Z,101775.13
2022-10-29T07:49:54.846Z,101783.38
2022-10-29T07:52:21.242Z,101790.84
2022-10-29T07:54:47.634Z,101787.13
2022-10-29T07:57:14.356Z,101780.22
2022-10-29T07:59:40.757Z,101786.59
2022-10-29T08:02:10.675Z,101783.16
2022-10-29T08:04:37.103Z,101779.66
2022-10-29T08:07:03.527Z,101773.84
2022-10-29T08:09:29.958Z,101776.16
2022-10-29T08:11:56.342Z,101780.50
2022-10-29T08:14:22.923Z,101778.56
2022-10-29T08:16:49.419Z,101786.06
2022-10-29T08:19:15.843Z,101780.50
2022-10-29T08:21:42.205Z,101780.97
2022-10-29T08:24:09.925Z,101793.88
2022-10-29T08:26:36.301Z,101792.50
2022-10-29T08:29:02.685Z,101784.72
2022-10-29T08:31:35.295Z,101785.16
2022-10-29T08:34:02.795Z,101785.53
2022-10-29T08:36:31.648Z,101785.19
2022-10-29T08:39:00.994Z,101789.00
2022-10-29T08:41:58.885Z,101785.50
2022-10-29T08:45:02.720Z,101782.59
2022-10-29T08:47:41.675Z,101790.00
2022-10-29T08:50:22.809Z,101794.47
2022-10-29T08:52:58.909Z,101794.47
2022-10-29T08:55:38.083Z,101796.94
2022-10-29T08:58:20.193Z,101788.72
2022-10-29T09:00:52.880Z,101794.47
2022-10-29T09:03:19.399Z,101786.66
2022-10-29T09:06:00.139Z,101778.91
2022-10-29T09:08:55.118Z,101783.59
2022-10-29T09:12:16.556Z,101793.50
2022-10-29T09:15:18.089Z,101787.13
2022-10-29T09:17:50.435Z,101799.75
2022-10-29T09:20:43.139Z,101803.34
2022-10-29T09:23:24.834Z,101800.50
2022-10-29T09:25:56.023Z,101803.94
2022-10-29T09:28:45.767Z,101799.53
2022-10-29T09:31:47.776Z,101794.41
2022-10-29T09:34:30.747Z,101798.13
2022-10-29T09:36:58.535Z,101804.53
2022-10-29T09:39:39.224Z,101794.56
2022-10-29T09:42:33.629Z,101788.78
2022-10-29T09:45:04.190Z,101791.63
2022-10-29T09:47:37.251Z,101789.00
2022-10-29T09:50:11.833Z,101788.16
2022-10-29T09:52:41.940Z,101785.56
2022-10-29T09:55:18.721Z,101786.91
2022-10-29T09:57:46.847Z,101782.41
2022-10-29T10:00:26.853Z,101778.91
2022-10-29T10:02:59.813Z,101782.72
2022-10-29T10:05:34.709Z,101776.81
2022-10-29T10:08:12.114Z,101781.09
2022-10-29T10:10:49.692Z,101783.63
2022-10-29T10:13:17.712Z,101784.31
2022-10-29T10:16:06.269Z,101771.91
2022-10-29T10:18:32.660Z,101772.31
2022-10-29T10:21:11.193Z,101756.34
2022-10-29T10:23:45.207Z,101763.94
2022-10-29T10:26:33.579Z,101757.81
2022-10-29T10:29:26.802Z,101754.41
2022-10-29T10:31:55.934Z,101746.72
2022-10-29T10:34:24.787Z,101750.06
2022-10-29T10:36:55.449Z,101746.84
2022-10-29T10:39:26.489Z,101749.44
2022-10-29T10:41:54.159Z,101749.56
2022-10-29T10:44:22.204Z,101748.84
2022-10-29T10:46:51.970Z,101755.16
2022-10-29T10:49:28.632Z,101755.75
2022-10-29T10:51:57.005Z,101757.94
2022-10-29T10:54:37.330Z,101759.88
2022-10-29T10:57:12.681Z,101751.25
2022-10-29T11:00:21.922Z,101742.84
2022-10-29T11:03:10.486Z,101744.38
2022-10-29T11:05:58.419Z,101735.75
2022-10-29T11:08:31.053Z,101724.59
2022-10-29T11:11:06.872Z,101727.31
2022-10-29T11:13:34.275Z,101735.38
2022-10-29T11:16:16.309Z,101730.41
2022-10-29T11:18:53.162Z,101716.31
2022-10-29T11:21:25.276Z,101717.19
2022-10-29T11:24:06.585Z,101712.56
2022-10-29T11:26:40.618Z,101701.72
2022-10-29T11:29:29.905Z,101690.34
2022-10-29T11:32:07.260Z,101696.03
2022-10-29T11:35:03.152Z,101692.56
2022-10-29T11:37:37.276Z,101692.59
2022-10-29T11:40:15.578Z,101690.09
2022-10-29T11:42:42.285Z,101688.97
2022-10-29T11:45:13.684Z,101685.44
2022-10-29T11:47:57.134Z,101683.28
2022-10-29T11:50:55.268Z,101677.44
2022-10-29T11:53:29.616Z,101670.75
2022-10-29T11:55:58.174Z,101680.66
2022-10-29T11:58:40.536Z,101674.97
2022-10-29T12:01:14.764Z,101670.94
2022-10-29T12:04:04.450Z,101671.31
2022-10-29T12:06:43.824Z,101662.09
2022-10-29T12:09:45.644Z,101660.06
2022-10-29T12:12:33.722Z,101652.03
2022-10-29T12:15:15.125Z,101664.25
2022-10-29T12:17:57.563Z,101654.53
2022-10-29T12:20:54.113Z,101648.50
2022-10-29T12:23:44.437Z,101653.69
2022-10-29T12:26:32.304Z,101648.66
2022-10-29T12:29:36.749Z,101648.50
2022-10-29T12:32:20.811Z,101658.00
2022-10-29T12:35:02.694Z,101661.84
2022-10-29T12:37:55.016Z,101649.75
2022-10-29T12:40:25.243Z,101636.81
2022-10-29T12:42:54.140Z,101639.47
2022-10-29T12:46:19.175Z,101630.88
2022-10-29T12:48:58.981Z,101627.41
2022-10-29T12:51:40.289Z,101619.66
2022-10-29T12:54:29.392Z,101609.56
2022-10-29T12:56:57.300Z,101604.94
2022-10-29T12:59:23.646Z,101614.31
2022-10-29T13:05:05.861Z,101601.72
2022-10-29T13:07:47.504Z,101597.09
2022-10-29T13:10:23.396Z,101602.47
2022-10-29T13:12:55.329Z,101597.78
2022-10-29T13:15:24.155Z,101596.97
2022-10-29T13:17:54.711Z,101602.00
2022-10-29T13:20:21.524Z,101602.22
2022-10-29T13:22:59.382Z,101591.25
2022-10-29T13:25:34.482Z,101588.25
2022-10-29T13:28:21.165Z,101591.00
2022-10-29T13:30:53.361Z,101595.38
2022-10-29T13:33:28.809Z,101589.66
2022-10-29T13:36:01.034Z,101583.50
2022-10-29T13:38:51.180Z,101593.25
2022-10-29T13:41:39.838Z,101588.53
2022-10-29T13:44:26.631Z,101596.19
2022-10-29T13:47:19.739Z,101585.25
2022-10-29T13:49:48.812Z,101576.13
2022-10-29T13:52:20.889Z,101573.47
2022-10-29T13:54:56.591Z,101578.75
2022-10-29T13:57:50.782Z,101579.88
2022-10-29T14:00:20.315Z,101581.50
2022-10-29T14:03:02.024Z,101584.84
2022-10-29T14:05:34.171Z,101578.41
2022-10-29T14:08:06.635Z,101579.09
2022-10-29T14:10:42.850Z,101570.03
2022-10-29T14:13:42.712Z,101573.06
2022-10-29T14:16:11.466Z,101575.41
2022-10-29T14:18:49.167Z,101578.59
2022-10-29T14:21:30.097Z,101581.25
2022-10-29T14:23:59.543Z,101572.75
2022-10-29T14:26:27.126Z,101568.25
2022-10-29T14:28:53.570Z,101560.91
2022-10-29T14:31:29.022Z,101566.28
2022-10-29T14:33:59.993Z,101571.00
2022-10-29T14:36:29.307Z,101569.72
2022-10-29T14:39:02.728Z,101570.34
2022-10-29T14:41:31.294Z,101565.34
2022-10-29T14:44:18.775Z,101564.31
2022-10-29T14:46:58.082Z,101573.34
2022-10-29T14:49:25.549Z,101570.22
2022-10-29T14:51:58.385Z,101577.88
2022-10-29T14:54:32.421Z,101579.25
2022-10-29T14:57:03.105Z,101568.06
2022-10-29T14:59:30.636Z,101572.31
2022-10-29T15:02:32.215Z,101573.59
2022-10-29T15:04:56.482Z,101568.91
2022-10-29T15:07:23.471Z,101572.63
2022-10-29T15:10:01.744Z,101566.94
2022-10-29T15:12:36.670Z,101560.63
2022-10-29T15:15:18.152Z,101559.13
2022-10-29T15:18:00.163Z,101561.00
2022-10-29T15:20:39.122Z,101560.63
2022-10-29T15:23:11.598Z,101555.81
2022-10-29T15:25:39.464Z,101553.28
2022-10-29T15:28:10.861Z,101553.81
2022-10-29T15:30:38.862Z,101551.47
2022-10-29T15:33:12.637Z,101551.66
2022-10-29T15:35:48.110Z,101559.38
2022-10-29T15:38:32.683Z,101555.38
2022-10-29T15:41:07.940Z,101562.28
2022-10-29T15:43:47.121Z,101554.91
2022-10-29T15:46:22.119Z,101569.81
2022-10-29T15:48:48.517Z,101571.81
2022-10-29T15:51:15.530Z,101577.34
2022-10-29T15:53:42.071Z,101576.00
2022-10-29T15:56:13.254Z,101584.41
2022-10-29T15:58:40.558Z,101570.50
2022-10-29T16:01:07.092Z,101573.34
2022-10-29T16:03:39.245Z,101581.88
2022-10-29T16:06:07.767Z,101574.19
2022-10-29T16:08:47.127Z,101562.31
2022-10-29T16:11:16.284Z,101565.66
2022-10-29T16:13:42.836Z,101560.97
2022-10-29T16:16:15.838Z,101559.78
2022-10-29T16:18:42.243Z,101560.13
2022-10-29T16:21:08.651Z,101553.59
2022-10-29T16:23:38.331Z,101554.59
2022-10-29T16:26:04.809Z,101558.44
2022-10-29T16:28:31.216Z,101553.59
2022-10-29T16:30:59.340Z,101562.47
2022-10-29T16:33:26.300Z,101555.75
2022-10-29T16:35:52.677Z,101555.91
2022-10-29T16:38:19.054Z,101552.38
2022-10-29T16:40:45.446Z,101556.69
2022-10-29T16:43:11.828Z,101554.00
2022-10-29T16:45:38.584Z,101555.16
2022-10-29T16:48:05.192Z,101563.72
2022-10-29T16:50:33.658Z,101558.69
2022-10-29T16:53:01.008Z,101546.50
2022-10-29T16:55:28.926Z,101546.81
2022-10-29T16:57:56.338Z,101551.94
2022-10-29T17:00:23.612Z,101548.59
2022-10-29T17:02:50.010Z,101546.28
2022-10-29T17:05:16.409Z,101544.44
2022-10-29T17:07:42.817Z,101551.38
2022-10-29T17:10:09.928Z,101558.53
2022-10-29T17:12:36.780Z,101570.72
2022-10-29T17:15:03.570Z,101564.34
2022-10-29T17:17:30.896Z,101562.50
2022-10-29T17:19:57.709Z,101568.50
2022-10-29T17:22:24.180Z,101565.47
2022-10-29T17:24:50.607Z,101563.88
2022-10-29T17:27:17.005Z,101565.66
2022-10-29T17:29:43.409Z,101564.63
2022-10-29T17:32:10.014Z,101565.41
2022-10-29T17:34:36.430Z,101574.66
2022-10-29T17:37:03.127Z,101570.88
2022-10-29T17:39:29.854Z,101558.09
2022-10-29T17:41:56.300Z,101554.38
2022-10-29T17:44:22.729Z,101566.03
2022-10-29T17:46:49.139Z,101558.00
2022-10-29T17:49:15.531Z,101554.06
2022-10-29T17:51:42.216Z,101554.66
2022-10-29T17:54:08.946Z,101552.34
2022-10-29T17:56:35.335Z,101558.53
2022-10-29T17:59:01.724Z,101557.09
2022-10-29T18:01:28.273Z,101550.22
2022-10-29T18:03:54.764Z,101553.78
2022-10-29T18:06:21.149Z,101543.56
2022-10-29T18:08:47.560Z,101542.69
2022-10-29T18:11:22.541Z,101551.69
2022-10-29T18:13:49.865Z,101545.09
2022-10-29T18:16:21.930Z,101559.16
2022-10-29T18:19:00.854Z,101558.38
2022-10-29T18:21:29.357Z,101560.22
2022-10-29T18:23:55.797Z,101558.88
2022-10-29T18:26:36.530Z,101551.22
2022-10-29T18:29:07.591Z,101564.81
2022-10-29T18:31:34.487Z,101563.25
2022-10-29T18:34:05.065Z,101575.63
2022-10-29T18:36:32.143Z,101569.75
2022-10-29T18:38:59.068Z,101570.59
2022-10-29T18:41:25.602Z,101560.50
2022-10-29T18:43:52.434Z,101555.78
2022-10-29T18:46:19.043Z,101551.28
2022-10-29T18:48:47.323Z,101556.34
2022-10-29T18:51:16.663Z,101555.28
2022-10-29T18:53:43.260Z,101556.78
2022-10-29T18:56:12.157Z,101558.84
2022-10-29T18:58:39.076Z,101558.00
2022-10-29T19:01:12.996Z,101549.50
2022-10-29T19:03:40.173Z,101553.94
2022-10-29T19:06:09.791Z,101548.03
2022-10-29T19:08:37.817Z,101552.00
2022-10-29T19:11:06.232Z,101548.00
2022-10-29T19:13:32.670Z,101543.06
2022-10-29T19:16:12.841Z,101544.53
2022-10-29T19:18:40.516Z,101540.03
2022-10-29T19:21:13.360Z,101541.81
2022-10-29T19:23:40.234Z,101538.03
2022-10-29T19:26:09.620Z,101539.50
2022-10-29T19:28:36.622Z,101544.34
2022-10-29T19:31:15.719Z,101543.22
2022-10-29T19:33:42.301Z,101519.16
2022-10-29T19:36:09.281Z,101518.88
2022-10-29T19:38:35.727Z,101529.63
2022-10-29T19:41:02.147Z,101518.09
2022-10-29T19:43:29.443Z,101517.28
2022-10-29T19:45:56.292Z,101523.47
2022-10-29T19:48:22.809Z,101526.38
2022-10-29T19:50:53.824Z,101522.31
2022-10-29T19:53:20.510Z,101518.81
2022-10-29T19:55:50.308Z,101520.72
2022-10-29T19:58:21.977Z,101522.59
2022-10-29T20:00:48.841Z,101529.31
2022-10-29T20:03:15.954Z,101524.56
2022-10-29T20:05:43.194Z,101530.13
2022-10-29T20:08:13.060Z,101528.69
2022-10-29T20:10:42.310Z,101521.13
2022-10-29T20:13:08.709Z,101528.88
2022-10-29T20:15:35.103Z,101531.34
2022-10-29T20:18:01.504Z,101529.16
2022-10-29T20:20:27.917Z,101542.66
2022-10-29T20:22:54.581Z,101545.53
2022-10-29T20:25:23.874Z,101540.25
2022-10-29T20:27:50.695Z,101535.22
2022-10-29T20:30:17.124Z,101535.44
2022-10-29T20:32:43.513Z,101533.38
2022-10-29T20:35:09.954Z,101534.44
2022-10-29T20:37:39.510Z,101536.13
2022-10-29T20:40:06.257Z,101538.72
2022-10-29T20:42:32.653Z,101529.31
2022-10-29T20:44:59.050Z,101531.59
2022-10-29T20:47:25.448Z,101538.50
2022-10-29T20:49:51.822Z,101534.97
2022-10-29T20:52:18.242Z,101539.94
2022-10-29T20:54:44.652Z,101537.22
2022-10-29T20:57:11.083Z,101536.91
2022-10-29T20:59:37.465Z,101537.00
2022-10-29T21:02:03.890Z,101535.31
2022-10-29T21:04:30.402Z,101532.88
2022-10-29T21:06:56.789Z,101531.13
2022-10-29T21:09:23.211Z,101536.53
2022-10-29T21:11:54.068Z,101537.69
2022-10-29T21:14:20.422Z,101538.75
2022-10-29T21:16:46.791Z,101540.34
2022-10-29T21:19:13.171Z,101539.50
2022-10-29T21:21:40.088Z,101544.53
2022-10-29T21:24:06.650Z,101541.09
2022-10-29T21:26:33.029Z,101546.50
2022-10-29T21:28:59.440Z,101547.66
2022-10-29T21:31:25.910Z,101555.44
2022-10-29T21:33:53.068Z,101550.94
2022-10-29T21:36:20.033Z,101549.34
2022-10-29T21:38:46.528Z,101547.03
2022-10-29T21:41:12.936Z,101545.59
2022-10-29T21:43:39.693Z,101543.16
2022-10-29T21:46:06.663Z,101535.31
2022-10-29T21:48:33.348Z,101528.72
2022-10-29T21:51:01.168Z,101522.00
2022-10-29T21:53:27.925Z,101517.81
2022-10-29T21:55:58.325Z,101515.91
2022-10-29T21:58:25.099Z,101516.22
2022-10-29T22:00:51.623Z,101518.19
2022-10-29T22:03:18.454Z,101522.09
2022-10-29T22:05:44.837Z,101514.16
2022-10-29T22:08:11.297Z,101511.00
2022-10-29T22:10:37.717Z,101515.91
2022-10-29T22:13:04.097Z,101515.34
2022-10-29T22:15:30.488Z,101499.25
2022-10-29T22:17:56.867Z,101483.44
2022-10-29T22:20:23.246Z,101482.53
2022-10-29T22:22:49.639Z,101488.25
2022-10-29T22:25:16.023Z,101494.59
2022-10-29T22:27:42.414Z,101495.75
2022-10-29T22:30:09.194Z,101497.00
2022-10-29T22:32:35.905Z,101498.88
2022-10-29T22:35:02.340Z,101495.28
2022-10-29T22:37:28.713Z,101498.94
2022-10-29T22:39:55.102Z,101505.53
2022-10-29T22:42:21.557Z,101511.63
2022-10-29T22:44:47.954Z,101510.50
2022-10-29T22:47:14.333Z,101512.78
2022-10-29T22:49:40.737Z,101516.50
2022-10-29T22:52:07.129Z,101515.97
2022-10-29T22:54:33.528Z,101518.91
2022-10-29T22:56:59.903Z,101512.84
2022-10-29T22:59:26.300Z,101517.97
2022-10-29T23:01:52.781Z,101516.91
2022-10-29T23:04:19.243Z,101516.56
2022-10-29T23:06:47.668Z,101519.19
2022-10-29T23:09:14.112Z,101509.56
2022-10-29T23:11:40.546Z,101514.06
2022-10-29T23:14:07.132Z,101516.22
2022-10-29T23:16:35.012Z,101513.00
2022-10-29T23:19:03.499Z,101514.16
2022-10-29T23:21:30.636Z,101511.47
2022-10-29T23:23:57.774Z,101512.31
2022-10-29T23:26:25.424Z,101513.44
2022-10-29T23:28:52.122Z,101507.25
2022-10-29T23:31:20.715Z,101506.59
2022-10-29T23:33:52.464Z,101504.50
2022-10-29T23:36:20.350Z,101510.84
2022-10-29T23:38:46.755Z,101501.53
2022-10-29T23:41:13.487Z,101499.53
2022-10-29T23:43:40.933Z,101501.59
2022-10-29T23:46:07.342Z,101499.78
2022-10-29T23:48:33.737Z,101500.44
2022-10-29T23:51:00.127Z,101503.03
2022-10-29T23:53:26.545Z,101500.66
2022-10-29T23:55:52.912Z,101500.88
2022-10-29T23:58:19.352Z,101498.63
